sensor_id;sensor_type;location;lat;lon;timestamp;temperature;humidity
41762;DHT22;27441;50.860;0.258;2022-09-03T00:05:28;16.60;99.90
41762;DHT22;27441;50.860;0.258;2022-09-03T00:10:43;16.40;99.90
41762;DHT22;27441;50.860;0.258;2022-09-03T00:13:15;16.40;99.90
41762;DHT22;27441;50.860;0.258;2022-09-03T00:15:42;16.40;99.90
41762;DHT22;27441;50.860;0.258;2022-09-03T00:18:15;16.40;99.90
41762;DHT22;27441;50.860;0.258;2022-09-03T00:20:47;16.30;99.90
41762;DHT22;27441;50.860;0.258;2022-09-03T00:23:25;16.30;99.90
41762;DHT22;27441;50.860;0.258;2022-09-03T00:26:13;16.30;99.90
41762;DHT22;27441;50.860;0.258;2022-09-03T00:28:46;16.30;99.90
41762;DHT22;27441;50.860;0.258;2022-09-03T00:31:36;16.30;99.90
41762;DHT22;27441;50.860;0.258;2022-09-03T00:36:53;16.30;99.90
41762;DHT22;27441;50.860;0.258;2022-09-03T00:39:20;16.30;99.90
41762;DHT22;27441;50.860;0.258;2022-09-03T00:41:57;16.30;99.90
41762;DHT22;27441;50.860;0.258;2022-09-03T00:47:11;16.30;99.90
41762;DHT22;27441;50.860;0.258;2022-09-03T01:00:30;16.40;99.90
41762;DHT22;27441;50.860;0.258;2022-09-03T01:06:08;16.40;99.90
41762;DHT22;27441;50.860;0.258;2022-09-03T01:08:52;16.40;99.90
41762;DHT22;27441;50.860;0.258;2022-09-03T01:11:58;16.40;99.90
41762;DHT22;27441;50.860;0.258;2022-09-03T01:14:46;16.40;99.90
41762;DHT22;27441;50.860;0.258;2022-09-03T01:30:30;16.30;99.90
41762;DHT22;27441;50.860;0.258;2022-09-03T01:33:18;16.40;99.90
41762;DHT22;27441;50.860;0.258;2022-09-03T01:46:39;16.50;99.90
41762;DHT22;27441;50.860;0.258;2022-09-03T01:49:16;16.50;99.90
41762;DHT22;27441;50.860;0.258;2022-09-03T01:51:54;16.50;99.90
41762;DHT22;27441;50.860;0.258;2022-09-03T01:57:21;16.50;99.90
41762;DHT22;27441;50.860;0.258;2022-09-03T02:00:04;16.40;99.90
41762;DHT22;27441;50.860;0.258;2022-09-03T02:02:31;16.40;99.90
41762;DHT22;27441;50.860;0.258;2022-09-03T02:05:00;16.40;99.90
41762;DHT22;27441;50.860;0.258;2022-09-03T02:07:32;16.40;99.90
41762;DHT22;27441;50.860;0.258;2022-09-03T02:10:02;16.30;99.90
41762;DHT22;27441;50.860;0.258;2022-09-03T02:12:33;16.30;99.90
41762;DHT22;27441;50.860;0.258;2022-09-03T02:15:02;16.30;99.90
41762;DHT22;27441;50.860;0.258;2022-09-03T02:17:31;16.30;99.90
41762;DHT22;27441;50.860;0.258;2022-09-03T02:19:57;16.30;99.90
41762;DHT22;27441;50.860;0.258;2022-09-03T02:22:23;16.20;99.90
41762;DHT22;27441;50.860;0.258;2022-09-03T02:24:49;16.20;99.90
41762;DHT22;27441;50.860;0.258;2022-09-03T02:27:15;16.10;99.90
41762;DHT22;27441;50.860;0.258;2022-09-03T02:29:41;16.10;99.90
41762;DHT22;27441;50.860;0.258;2022-09-03T02:32:06;16.10;99.90
41762;DHT22;27441;50.860;0.258;2022-09-03T02:34:32;16.10;99.90
41762;DHT22;27441;50.860;0.258;2022-09-03T02:36:58;16.20;99.90
41762;DHT22;27441;50.860;0.258;2022-09-03T02:39:24;16.20;99.90
41762;DHT22;27441;50.860;0.258;2022-09-03T02:41:55;16.20;99.90
41762;DHT22;27441;50.860;0.258;2022-09-03T02:44:30;16.10;99.90
41762;DHT22;27441;50.860;0.258;2022-09-03T02:47:03;16.20;99.90
41762;DHT22;27441;50.860;0.258;2022-09-03T02:49:29;16.10;99.90
41762;DHT22;27441;50.860;0.258;2022-09-03T02:52:01;16.10;99.90
41762;DHT22;27441;50.860;0.258;2022-09-03T02:54:31;16.10;99.90
41762;DHT22;27441;50.860;0.258;2022-09-03T02:56:58;16.10;99.90
41762;DHT22;27441;50.860;0.258;2022-09-03T02:59:24;16.10;99.90
41762;DHT22;27441;50.860;0.258;2022-09-03T03:01:53;16.00;99.90
41762;DHT22;27441;50.860;0.258;2022-09-03T03:04:20;16.00;99.90
41762;DHT22;27441;50.860;0.258;2022-09-03T03:06:46;16.10;99.90
41762;DHT22;27441;50.860;0.258;2022-09-03T03:09:12;16.00;99.90
41762;DHT22;27441;50.860;0.258;2022-09-03T03:11:37;16.00;99.90
41762;DHT22;27441;50.860;0.258;2022-09-03T03:14:04;16.00;99.90
41762;DHT22;27441;50.860;0.258;2022-09-03T03:16:30;16.00;99.90
41762;DHT22;27441;50.860;0.258;2022-09-03T03:18:56;16.00;99.90
41762;DHT22;27441;50.860;0.258;2022-09-03T03:21:22;16.00;99.90
41762;DHT22;27441;50.860;0.258;2022-09-03T03:23:48;16.10;99.90
41762;DHT22;27441;50.860;0.258;2022-09-03T03:26:17;16.10;99.90
41762;DHT22;27441;50.860;0.258;2022-09-03T03:28:44;16.10;99.90
41762;DHT22;27441;50.860;0.258;2022-09-03T03:31:20;16.10;99.90
41762;DHT22;27441;50.860;0.258;2022-09-03T03:33:57;16.10;99.90
41762;DHT22;27441;50.860;0.258;2022-09-03T03:36:25;16.10;99.90
41762;DHT22;27441;50.860;0.258;2022-09-03T03:38:56;16.10;99.90
41762;DHT22;27441;50.860;0.258;2022-09-03T03:41:26;16.10;99.90
41762;DHT22;27441;50.860;0.258;2022-09-03T03:43:53;16.10;99.90
41762;DHT22;27441;50.860;0.258;2022-09-03T03:46:20;16.10;99.90
41762;DHT22;27441;50.860;0.258;2022-09-03T03:48:48;16.10;99.90
41762;DHT22;27441;50.860;0.258;2022-09-03T03:51:14;16.10;99.90
41762;DHT22;27441;50.860;0.258;2022-09-03T03:53:39;16.10;99.90
41762;DHT22;27441;50.860;0.258;2022-09-03T03:56:08;16.00;99.90
41762;DHT22;27441;50.860;0.258;2022-09-03T03:58:38;16.00;99.90
41762;DHT22;27441;50.860;0.258;2022-09-03T04:01:15;16.10;99.90
41762;DHT22;27441;50.860;0.258;2022-09-03T04:03:42;16.10;99.90
41762;DHT22;27441;50.860;0.258;2022-09-03T04:06:10;16.10;99.90
41762;DHT22;27441;50.860;0.258;2022-09-03T04:08:38;16.10;99.90
41762;DHT22;27441;50.860;0.258;2022-09-03T04:11:06;16.10;99.90
41762;DHT22;27441;50.860;0.258;2022-09-03T04:13:33;16.00;99.90
41762;DHT22;27441;50.860;0.258;2022-09-03T04:16:04;16.10;99.90
41762;DHT22;27441;50.860;0.258;2022-09-03T04:18:30;16.10;99.90
41762;DHT22;27441;50.860;0.258;2022-09-03T04:21:05;16.10;99.90
41762;DHT22;27441;50.860;0.258;2022-09-03T04:23:33;16.10;99.90
41762;DHT22;27441;50.860;0.258;2022-09-03T04:25:59;16.20;99.90
41762;DHT22;27441;50.860;0.258;2022-09-03T04:28:25;16.10;99.90
41762;DHT22;27441;50.860;0.258;2022-09-03T04:30:51;16.10;99.90
41762;DHT22;27441;50.860;0.258;2022-09-03T04:33:17;16.10;99.90
41762;DHT22;27441;50.860;0.258;2022-09-03T04:35:43;16.10;99.90
41762;DHT22;27441;50.860;0.258;2022-09-03T04:38:09;16.10;99.90
41762;DHT22;27441;50.860;0.258;2022-09-03T04:40:35;16.10;99.90
41762;DHT22;27441;50.860;0.258;2022-09-03T04:43:02;15.90;99.90
41762;DHT22;27441;50.860;0.258;2022-09-03T04:45:28;15.90;99.90
41762;DHT22;27441;50.860;0.258;2022-09-03T04:48:01;15.80;99.90
41762;DHT22;27441;50.860;0.258;2022-09-03T04:50:27;15.80;99.90
41762;DHT22;27441;50.860;0.258;2022-09-03T04:52:59;15.80;99.90
41762;DHT22;27441;50.860;0.258;2022-09-03T04:55:25;15.70;99.90
41762;DHT22;27441;50.860;0.258;2022-09-03T04:57:51;15.70;99.90
41762;DHT22;27441;50.860;0.258;2022-09-03T05:00:17;15.70;99.90
41762;DHT22;27441;50.860;0.258;2022-09-03T05:02:44;15.60;99.90
41762;DHT22;27441;50.860;0.258;2022-09-03T05:05:11;15.50;99.90
41762;DHT22;27441;50.860;0.258;2022-09-03T05:07:37;15.50;99.90
41762;DHT22;27441;50.860;0.258;2022-09-03T05:10:08;15.50;99.90
41762;DHT22;27441;50.860;0.258;2022-09-03T05:12:37;15.50;99.90
41762;DHT22;27441;50.860;0.258;2022-09-03T05:15:04;15.50;99.90
41762;DHT22;27441;50.860;0.258;2022-09-03T05:17:30;15.50;99.90
41762;DHT22;27441;50.860;0.258;2022-09-03T05:19:56;15.50;99.90
41762;DHT22;27441;50.860;0.258;2022-09-03T05:22:22;15.50;99.90
41762;DHT22;27441;50.860;0.258;2022-09-03T05:24:48;15.50;99.90
41762;DHT22;27441;50.860;0.258;2022-09-03T05:27:15;15.60;99.90
41762;DHT22;27441;50.860;0.258;2022-09-03T05:29:43;15.60;99.90
41762;DHT22;27441;50.860;0.258;2022-09-03T05:32:10;15.60;99.90
41762;DHT22;27441;50.860;0.258;2022-09-03T05:34:38;15.60;99.90
41762;DHT22;27441;50.860;0.258;2022-09-03T05:37:04;15.70;99.90
41762;DHT22;27441;50.860;0.258;2022-09-03T05:39:29;15.70;99.90
41762;DHT22;27441;50.860;0.258;2022-09-03T05:41:55;15.60;99.90
41762;DHT22;27441;50.860;0.258;2022-09-03T05:44:21;15.70;99.90
41762;DHT22;27441;50.860;0.258;2022-09-03T05:46:49;15.60;99.90
41762;DHT22;27441;50.860;0.258;2022-09-03T05:49:16;15.70;99.90
41762;DHT22;27441;50.860;0.258;2022-09-03T05:51:42;15.70;99.90
41762;DHT22;27441;50.860;0.258;2022-09-03T05:54:09;15.70;99.90
41762;DHT22;27441;50.860;0.258;2022-09-03T05:56:36;15.70;99.90
41762;DHT22;27441;50.860;0.258;2022-09-03T05:59:05;15.70;99.90
41762;DHT22;27441;50.860;0.258;2022-09-03T06:01:44;15.60;99.90
41762;DHT22;27441;50.860;0.258;2022-09-03T06:04:12;15.60;99.90
41762;DHT22;27441;50.860;0.258;2022-09-03T06:06:40;15.70;99.90
41762;DHT22;27441;50.860;0.258;2022-09-03T06:09:13;15.60;99.90
41762;DHT22;27441;50.860;0.258;2022-09-03T06:11:41;15.60;99.90
41762;DHT22;27441;50.860;0.258;2022-09-03T06:14:09;15.60;99.90
41762;DHT22;27441;50.860;0.258;2022-09-03T06:16:38;15.60;99.90
41762;DHT22;27441;50.860;0.258;2022-09-03T06:19:05;15.60;99.90
41762;DHT22;27441;50.860;0.258;2022-09-03T06:21:34;15.60;99.90
41762;DHT22;27441;50.860;0.258;2022-09-03T06:24:01;15.60;99.90
41762;DHT22;27441;50.860;0.258;2022-09-03T06:26:28;15.70;99.90
41762;DHT22;27441;50.860;0.258;2022-09-03T06:28:54;15.80;99.90
41762;DHT22;27441;50.860;0.258;2022-09-03T06:31:21;15.80;99.90
41762;DHT22;27441;50.860;0.258;2022-09-03T06:33:47;15.80;99.90
41762;DHT22;27441;50.860;0.258;2022-09-03T06:36:15;15.80;99.90
41762;DHT22;27441;50.860;0.258;2022-09-03T06:38:42;15.90;99.90
41762;DHT22;27441;50.860;0.258;2022-09-03T06:41:16;15.90;99.90
41762;DHT22;27441;50.860;0.258;2022-09-03T06:43:46;15.90;99.90
41762;DHT22;27441;50.860;0.258;2022-09-03T06:46:19;16.00;99.90
41762;DHT22;27441;50.860;0.258;2022-09-03T06:48:45;16.10;99.90
41762;DHT22;27441;50.860;0.258;2022-09-03T06:51:16;16.20;99.90
41762;DHT22;27441;50.860;0.258;2022-09-03T06:53:45;16.20;99.90
41762;DHT22;27441;50.860;0.258;2022-09-03T06:56:22;16.30;99.90
41762;DHT22;27441;50.860;0.258;2022-09-03T06:58:57;16.30;99.90
41762;DHT22;27441;50.860;0.258;2022-09-03T07:01:26;16.50;99.90
41762;DHT22;27441;50.860;0.258;2022-09-03T07:03:54;16.60;99.90
41762;DHT22;27441;50.860;0.258;2022-09-03T07:06:21;16.60;99.90
41762;DHT22;27441;50.860;0.258;2022-09-03T07:08:47;16.70;99.90
41762;DHT22;27441;50.860;0.258;2022-09-03T07:11:16;16.80;99.90
41762;DHT22;27441;50.860;0.258;2022-09-03T07:13:46;17.00;99.90
41762;DHT22;27441;50.860;0.258;2022-09-03T07:16:18;17.10;99.90
41762;DHT22;27441;50.860;0.258;2022-09-03T07:18:44;17.20;99.90
41762;DHT22;27441;50.860;0.258;2022-09-03T07:21:18;17.30;99.90
41762;DHT22;27441;50.860;0.258;2022-09-03T07:23:44;17.40;99.90
41762;DHT22;27441;50.860;0.258;2022-09-03T07:26:14;17.50;99.90
41762;DHT22;27441;50.860;0.258;2022-09-03T07:28:41;17.50;99.90
41762;DHT22;27441;50.860;0.258;2022-09-03T07:31:12;17.60;99.90
41762;DHT22;27441;50.860;0.258;2022-09-03T07:33:38;17.70;99.90
41762;DHT22;27441;50.860;0.258;2022-09-03T07:36:09;17.90;99.90
41762;DHT22;27441;50.860;0.258;2022-09-03T07:38:36;18.00;99.90
41762;DHT22;27441;50.860;0.258;2022-09-03T07:41:04;18.10;99.90
41762;DHT22;27441;50.860;0.258;2022-09-03T07:43:39;18.20;99.90
41762;DHT22;27441;50.860;0.258;2022-09-03T07:46:06;18.40;99.90
41762;DHT22;27441;50.860;0.258;2022-09-03T07:48:33;18.50;99.90
41762;DHT22;27441;50.860;0.258;2022-09-03T07:50:59;18.60;99.90
41762;DHT22;27441;50.860;0.258;2022-09-03T07:53:28;18.80;99.90
41762;DHT22;27441;50.860;0.258;2022-09-03T07:56:02;18.90;99.90
41762;DHT22;27441;50.860;0.258;2022-09-03T07:58:29;19.00;99.90
41762;DHT22;27441;50.860;0.258;2022-09-03T08:00:56;19.20;99.90
41762;DHT22;27441;50.860;0.258;2022-09-03T08:03:22;19.30;99.90
41762;DHT22;27441;50.860;0.258;2022-09-03T08:05:48;19.40;99.90
41762;DHT22;27441;50.860;0.258;2022-09-03T08:08:14;19.60;99.90
41762;DHT22;27441;50.860;0.258;2022-09-03T08:10:40;19.70;99.90
41762;DHT22;27441;50.860;0.258;2022-09-03T08:13:06;19.90;99.90
41762;DHT22;27441;50.860;0.258;2022-09-03T08:15:33;20.00;99.90
41762;DHT22;27441;50.860;0.258;2022-09-03T08:17:59;20.00;99.90
41762;DHT22;27441;50.860;0.258;2022-09-03T08:20:26;20.00;99.90
41762;DHT22;27441;50.860;0.258;2022-09-03T08:22:52;20.00;99.90
41762;DHT22;27441;50.860;0.258;2022-09-03T08:25:18;20.00;99.90
41762;DHT22;27441;50.860;0.258;2022-09-03T08:27:44;20.10;99.90
41762;DHT22;27441;50.860;0.258;2022-09-03T08:30:10;20.20;99.90
41762;DHT22;27441;50.860;0.258;2022-09-03T08:32:39;20.30;99.90
41762;DHT22;27441;50.860;0.258;2022-09-03T08:35:06;20.40;99.90
41762;DHT22;27441;50.860;0.258;2022-09-03T08:37:34;20.50;99.90
41762;DHT22;27441;50.860;0.258;2022-09-03T08:39:59;20.60;99.90
41762;DHT22;27441;50.860;0.258;2022-09-03T08:45:15;21.10;99.90
41762;DHT22;27441;50.860;0.258;2022-09-03T08:48:00;21.50;99.90
41762;DHT22;27441;50.860;0.258;2022-09-03T08:50:32;21.80;99.90
41762;DHT22;27441;50.860;0.258;2022-09-03T08:55:53;22.20;99.90
41762;DHT22;27441;50.860;0.258;2022-09-03T08:58:24;22.50;99.90
41762;DHT22;27441;50.860;0.258;2022-09-03T09:00:57;22.70;99.90
41762;DHT22;27441;50.860;0.258;2022-09-03T09:03:51;22.70;99.90
41762;DHT22;27441;50.860;0.258;2022-09-03T09:06:45;22.70;99.90
41762;DHT22;27441;50.860;0.258;2022-09-03T09:09:29;23.00;99.90
41762;DHT22;27441;50.860;0.258;2022-09-03T09:12:12;23.20;99.90
41762;DHT22;27441;50.860;0.258;2022-09-03T09:14:49;23.40;99.90
41762;DHT22;27441;50.860;0.258;2022-09-03T09:17:44;23.60;99.90
41762;DHT22;27441;50.860;0.258;2022-09-03T09:20:50;23.40;99.90
41762;DHT22;27441;50.860;0.258;2022-09-03T09:23:35;23.10;99.90
41762;DHT22;27441;50.860;0.258;2022-09-03T09:26:06;22.80;99.90
41762;DHT22;27441;50.860;0.258;2022-09-03T09:28:38;22.70;99.90
41762;DHT22;27441;50.860;0.258;2022-09-03T09:31:06;22.60;99.90
41762;DHT22;27441;50.860;0.258;2022-09-03T09:33:34;22.40;99.90
41762;DHT22;27441;50.860;0.258;2022-09-03T09:36:06;22.30;99.90
41762;DHT22;27441;50.860;0.258;2022-09-03T09:38:35;22.30;99.90
41762;DHT22;27441;50.860;0.258;2022-09-03T09:41:15;22.60;99.90
41762;DHT22;27441;50.860;0.258;2022-09-03T09:43:42;22.80;99.90
41762;DHT22;27441;50.860;0.258;2022-09-03T09:46:29;22.80;99.90
41762;DHT22;27441;50.860;0.258;2022-09-03T09:48:57;23.40;99.90
41762;DHT22;27441;50.860;0.258;2022-09-03T09:51:28;23.50;99.90
41762;DHT22;27441;50.860;0.258;2022-09-03T09:56:25;23.30;99.90
41762;DHT22;27441;50.860;0.258;2022-09-03T09:59:05;23.40;99.90
41762;DHT22;27441;50.860;0.258;2022-09-03T10:01:33;23.50;99.90
41762;DHT22;27441;50.860;0.258;2022-09-03T10:04:13;23.50;99.90
41762;DHT22;27441;50.860;0.258;2022-09-03T10:06:45;23.40;99.90
41762;DHT22;27441;50.860;0.258;2022-09-03T10:09:28;23.40;99.90
41762;DHT22;27441;50.860;0.258;2022-09-03T10:14:49;23.10;99.90
41762;DHT22;27441;50.860;0.258;2022-09-03T10:17:27;23.40;99.90
41762;DHT22;27441;50.860;0.258;2022-09-03T10:20:21;24.20;99.90
41762;DHT22;27441;50.860;0.258;2022-09-03T10:23:01;25.00;99.90
41762;DHT22;27441;50.860;0.258;2022-09-03T10:28:21;25.00;99.90
41762;DHT22;27441;50.860;0.258;2022-09-03T10:34:08;25.80;99.90
41762;DHT22;27441;50.860;0.258;2022-09-03T10:50:56;24.70;99.90
41762;DHT22;27441;50.860;0.258;2022-09-03T11:07:12;25.00;99.90
41762;DHT22;27441;50.860;0.258;2022-09-03T11:12:35;25.30;99.90
41762;DHT22;27441;50.860;0.258;2022-09-03T11:15:22;25.20;99.90
41762;DHT22;27441;50.860;0.258;2022-09-03T11:20:56;24.90;99.90
41762;DHT22;27441;50.860;0.258;2022-09-03T11:23:28;24.80;99.90
41762;DHT22;27441;50.860;0.258;2022-09-03T11:25:58;24.60;99.90
41762;DHT22;27441;50.860;0.258;2022-09-03T11:31:21;24.40;99.90
41762;DHT22;27441;50.860;0.258;2022-09-03T11:33:57;23.70;99.90
41762;DHT22;27441;50.860;0.258;2022-09-03T11:36:29;23.30;99.90
41762;DHT22;27441;50.860;0.258;2022-09-03T11:38:55;23.00;99.90
41762;DHT22;27441;50.860;0.258;2022-09-03T11:43:47;23.20;99.90
41762;DHT22;27441;50.860;0.258;2022-09-03T11:46:26;23.30;99.90
41762;DHT22;27441;50.860;0.258;2022-09-03T11:48:54;23.50;99.90
41762;DHT22;27441;50.860;0.258;2022-09-03T11:51:31;23.90;99.90
41762;DHT22;27441;50.860;0.258;2022-09-03T11:54:00;23.80;99.90
41762;DHT22;27441;50.860;0.258;2022-09-03T11:56:27;24.00;99.90
41762;DHT22;27441;50.860;0.258;2022-09-03T12:04:21;24.80;99.90
41762;DHT22;27441;50.860;0.258;2022-09-03T12:15:59;22.80;99.90
41762;DHT22;27441;50.860;0.258;2022-09-03T12:18:33;22.50;99.90
41762;DHT22;27441;50.860;0.258;2022-09-03T12:23:33;22.60;99.90
41762;DHT22;27441;50.860;0.258;2022-09-03T12:26:05;22.70;99.90
41762;DHT22;27441;50.860;0.258;2022-09-03T12:28:35;23.00;99.90
41762;DHT22;27441;50.860;0.258;2022-09-03T12:31:22;23.30;99.90
41762;DHT22;27441;50.860;0.258;2022-09-03T12:34:00;23.30;99.90
41762;DHT22;27441;50.860;0.258;2022-09-03T12:36:44;23.30;99.90
41762;DHT22;27441;50.860;0.258;2022-09-03T12:39:16;23.20;99.90
41762;DHT22;27441;50.860;0.258;2022-09-03T12:42:11;23.20;99.90
41762;DHT22;27441;50.860;0.258;2022-09-03T12:44:40;23.30;99.90
41762;DHT22;27441;50.860;0.258;2022-09-03T12:47:15;23.30;99.90
41762;DHT22;27441;50.860;0.258;2022-09-03T12:49:46;23.20;99.90
41762;DHT22;27441;50.860;0.258;2022-09-03T12:52:31;23.40;99.90
41762;DHT22;27441;50.860;0.258;2022-09-03T12:57:42;23.60;99.90
41762;DHT22;27441;50.860;0.258;2022-09-03T13:00:13;23.70;99.90
41762;DHT22;27441;50.860;0.258;2022-09-03T13:03:25;23.80;99.90
41762;DHT22;27441;50.860;0.258;2022-09-03T13:06:01;23.80;99.90
41762;DHT22;27441;50.860;0.258;2022-09-03T13:08:31;23.80;99.90
41762;DHT22;27441;50.860;0.258;2022-09-03T13:11:01;23.80;99.90
41762;DHT22;27441;50.860;0.258;2022-09-03T13:13:32;23.70;99.90
41762;DHT22;27441;50.860;0.258;2022-09-03T13:16:01;23.70;99.90
41762;DHT22;27441;50.860;0.258;2022-09-03T13:29:46;23.20;99.90
41762;DHT22;27441;50.860;0.258;2022-09-03T13:32:22;23.20;99.90
41762;DHT22;27441;50.860;0.258;2022-09-03T13:34:56;23.20;99.90
41762;DHT22;27441;50.860;0.258;2022-09-03T13:37:47;23.20;99.90
41762;DHT22;27441;50.860;0.258;2022-09-03T13:40:24;23.20;99.90
41762;DHT22;27441;50.860;0.258;2022-09-03T13:43:19;23.20;99.90
41762;DHT22;27441;50.860;0.258;2022-09-03T13:45:55;23.10;99.90
41762;DHT22;27441;50.860;0.258;2022-09-03T13:57:18;22.90;99.90
41762;DHT22;27441;50.860;0.258;2022-09-03T13:59:52;22.70;99.90
41762;DHT22;27441;50.860;0.258;2022-09-03T14:05:38;22.70;99.90
41762;DHT22;27441;50.860;0.258;2022-09-03T14:08:27;22.60;99.90
41762;DHT22;27441;50.860;0.258;2022-09-03T14:11:18;22.50;99.90
41762;DHT22;27441;50.860;0.258;2022-09-03T14:16:56;22.50;99.90
41762;DHT22;27441;50.860;0.258;2022-09-03T14:19:58;22.70;99.90
41762;DHT22;27441;50.860;0.258;2022-09-03T14:25:13;22.60;99.90
41762;DHT22;27441;50.860;0.258;2022-09-03T14:27:39;22.70;99.90
41762;DHT22;27441;50.860;0.258;2022-09-03T14:30:16;22.50;99.90
41762;DHT22;27441;50.860;0.258;2022-09-03T14:40:55;22.60;99.90
41762;DHT22;27441;50.860;0.258;2022-09-03T14:46:45;22.70;99.90
41762;DHT22;27441;50.860;0.258;2022-09-03T14:49:31;22.70;99.90
41762;DHT22;27441;50.860;0.258;2022-09-03T14:57:47;22.30;99.90
41762;DHT22;27441;50.860;0.258;2022-09-03T15:00:50;22.30;99.90
41762;DHT22;27441;50.860;0.258;2022-09-03T15:03:29;22.30;99.90
41762;DHT22;27441;50.860;0.258;2022-09-03T15:14:49;21.90;99.90
41762;DHT22;27441;50.860;0.258;2022-09-03T15:17:45;22.00;99.90
41762;DHT22;27441;50.860;0.258;2022-09-03T15:23:46;21.80;99.90
41762;DHT22;27441;50.860;0.258;2022-09-03T15:26:03;21.90;99.90
41762;DHT22;27441;50.860;0.258;2022-09-03T15:31:28;21.80;99.90
41762;DHT22;27441;50.860;0.258;2022-09-03T15:36:50;21.80;99.90
41762;DHT22;27441;50.860;0.258;2022-09-03T15:39:24;21.80;99.90
41762;DHT22;27441;50.860;0.258;2022-09-03T15:42:09;21.70;99.90
41762;DHT22;27441;50.860;0.258;2022-09-03T15:44:46;21.70;99.90
41762;DHT22;27441;50.860;0.258;2022-09-03T15:47:31;21.70;99.90
41762;DHT22;27441;50.860;0.258;2022-09-03T15:50:06;21.70;99.90
41762;DHT22;27441;50.860;0.258;2022-09-03T15:55:31;21.60;99.90
41762;DHT22;27441;50.860;0.258;2022-09-03T16:07:01;21.30;99.90
41762;DHT22;27441;50.860;0.258;2022-09-03T16:15:59;21.10;99.90
41762;DHT22;27441;50.860;0.258;2022-09-03T16:18:31;21.10;99.90
41762;DHT22;27441;50.860;0.258;2022-09-03T16:21:11;21.10;99.90
41762;DHT22;27441;50.860;0.258;2022-09-03T16:23:58;21.00;99.90
41762;DHT22;27441;50.860;0.258;2022-09-03T16:26:39;21.00;99.90
41762;DHT22;27441;50.860;0.258;2022-09-03T16:29:16;21.00;99.90
41762;DHT22;27441;50.860;0.258;2022-09-03T16:43:05;21.10;99.90
41762;DHT22;27441;50.860;0.258;2022-09-03T16:57:37;21.00;99.90
41762;DHT22;27441;50.860;0.258;2022-09-03T17:00:14;21.00;99.90
41762;DHT22;27441;50.860;0.258;2022-09-03T17:08:18;20.70;99.90
41762;DHT22;27441;50.860;0.258;2022-09-03T17:26:22;20.20;99.90
41762;DHT22;27441;50.860;0.258;2022-09-03T17:31:50;20.00;99.90
41762;DHT22;27441;50.860;0.258;2022-09-03T17:34:30;20.00;99.90
41762;DHT22;27441;50.860;0.258;2022-09-03T17:37:07;20.00;99.90
41762;DHT22;27441;50.860;0.258;2022-09-03T17:45:35;19.80;99.90
41762;DHT22;27441;50.860;0.258;2022-09-03T17:53:22;19.80;99.90
41762;DHT22;27441;50.860;0.258;2022-09-03T17:56:01;19.70;99.90
41762;DHT22;27441;50.860;0.258;2022-09-03T17:58:36;19.70;99.90
41762;DHT22;27441;50.860;0.258;2022-09-03T18:03:58;19.50;99.90
41762;DHT22;27441;50.860;0.258;2022-09-03T18:06:35;19.50;99.90
41762;DHT22;27441;50.860;0.258;2022-09-03T18:09:21;19.40;99.90
41762;DHT22;27441;50.860;0.258;2022-09-03T18:17:09;19.30;99.90
41762;DHT22;27441;50.860;0.258;2022-09-03T18:19:38;19.30;99.90
41762;DHT22;27441;50.860;0.258;2022-09-03T18:22:31;19.20;99.90
41762;DHT22;27441;50.860;0.258;2022-09-03T18:25:18;19.10;99.90
41762;DHT22;27441;50.860;0.258;2022-09-03T18:28:09;19.00;99.90
41762;DHT22;27441;50.860;0.258;2022-09-03T18:30:56;19.00;99.90
41762;DHT22;27441;50.860;0.258;2022-09-03T18:33:40;19.00;99.90
41762;DHT22;27441;50.860;0.258;2022-09-03T18:36:24;19.00;99.90
41762;DHT22;27441;50.860;0.258;2022-09-03T18:39:26;18.90;99.90
41762;DHT22;27441;50.860;0.258;2022-09-03T18:45:30;18.80;99.90
41762;DHT22;27441;50.860;0.258;2022-09-03T18:48:53;18.70;99.90
41762;DHT22;27441;50.860;0.258;2022-09-03T19:00:37;18.40;99.90
41762;DHT22;27441;50.860;0.258;2022-09-03T19:03:35;18.30;99.90
41762;DHT22;27441;50.860;0.258;2022-09-03T19:06:34;18.20;99.90
41762;DHT22;27441;50.860;0.258;2022-09-03T19:21:38;17.90;99.90
41762;DHT22;27441;50.860;0.258;2022-09-03T19:24:27;17.90;99.90
41762;DHT22;27441;50.860;0.258;2022-09-03T19:30:37;17.80;99.90
41762;DHT22;27441;50.860;0.258;2022-09-03T19:37:20;17.70;99.90
41762;DHT22;27441;50.860;0.258;2022-09-03T19:40:31;17.70;99.90
41762;DHT22;27441;50.860;0.258;2022-09-03T19:43:49;17.70;99.90
41762;DHT22;27441;50.860;0.258;2022-09-03T19:46:55;17.60;99.90
41762;DHT22;27441;50.860;0.258;2022-09-03T19:53:25;17.60;99.90
41762;DHT22;27441;50.860;0.258;2022-09-03T19:56:18;17.60;99.90
41762;DHT22;27441;50.860;0.258;2022-09-03T19:59:12;17.40;99.90
41762;DHT22;27441;50.860;0.258;2022-09-03T20:01:59;17.40;99.90
41762;DHT22;27441;50.860;0.258;2022-09-03T20:04:48;17.40;99.90
41762;DHT22;27441;50.860;0.258;2022-09-03T20:07:34;17.40;99.90
41762;DHT22;27441;50.860;0.258;2022-09-03T20:10:20;17.30;99.90
41762;DHT22;27441;50.860;0.258;2022-09-03T20:27:03;17.10;99.90
41762;DHT22;27441;50.860;0.258;2022-09-03T20:29:47;17.00;99.90
41762;DHT22;27441;50.860;0.258;2022-09-03T20:32:52;17.00;99.90
41762;DHT22;27441;50.860;0.258;2022-09-03T20:35:32;17.00;99.90
41762;DHT22;27441;50.860;0.258;2022-09-03T20:40:45;17.10;99.90
41762;DHT22;27441;50.860;0.258;2022-09-03T20:43:34;17.00;99.90
41762;DHT22;27441;50.860;0.258;2022-09-03T20:51:50;17.00;99.90
41762;DHT22;27441;50.860;0.258;2022-09-03T20:54:28;17.00;99.90
41762;DHT22;27441;50.860;0.258;2022-09-03T20:59:55;17.00;99.90
41762;DHT22;27441;50.860;0.258;2022-09-03T21:10:10;17.00;99.90
41762;DHT22;27441;50.860;0.258;2022-09-03T21:15:48;17.00;99.90
41762;DHT22;27441;50.860;0.258;2022-09-03T21:23:28;16.90;99.90
41762;DHT22;27441;50.860;0.258;2022-09-03T21:26:06;16.90;99.90
41762;DHT22;27441;50.860;0.258;2022-09-03T21:28:38;16.90;99.90
41762;DHT22;27441;50.860;0.258;2022-09-03T21:31:18;16.80;99.90
41762;DHT22;27441;50.860;0.258;2022-09-03T21:33:47;16.80;99.90
41762;DHT22;27441;50.860;0.258;2022-09-03T21:36:24;16.70;99.90
41762;DHT22;27441;50.860;0.258;2022-09-03T21:39:12;16.80;99.90
41762;DHT22;27441;50.860;0.258;2022-09-03T21:41:49;16.70;99.90
41762;DHT22;27441;50.860;0.258;2022-09-03T21:44:18;16.70;99.90
41762;DHT22;27441;50.860;0.258;2022-09-03T21:46:58;16.70;99.90
41762;DHT22;27441;50.860;0.258;2022-09-03T21:52:14;16.50;99.90
41762;DHT22;27441;50.860;0.258;2022-09-03T21:54:41;16.40;99.90
41762;DHT22;27441;50.860;0.258;2022-09-03T21:57:20;16.40;99.90
41762;DHT22;27441;50.860;0.258;2022-09-03T22:00:07;16.30;99.90
41762;DHT22;27441;50.860;0.258;2022-09-03T22:02:34;16.30;99.90
41762;DHT22;27441;50.860;0.258;2022-09-03T22:05:01;16.30;99.90
41762;DHT22;27441;50.860;0.258;2022-09-03T22:07:54;16.20;99.90
41762;DHT22;27441;50.860;0.258;2022-09-03T22:10:31;16.30;99.90